Time;durP1;ratioP1;P1;durP2;ratioP2;P2;SDS_P1;SDS_P2;PMS_P1;PMS_P2;Temp;Humidity;BMP_temperature;BMP_pressure;BME280_temperature;BME280_humidity;BME280_pressure;Samples;Min_cycle;Max_cycle;Signal;HPM_P1;HPM_P2
2023/12/02 00:01:40;0.00;0.00;0.62;0.00;0.00;0.62;2.30;1.80;;;18.20;22.90;;;;;;2260486;61;20392;-52
2023/12/02 00:04:25;0.00;0.00;0.62;0.00;0.00;0.62;3.00;2.10;;;18.20;22.90;;;;;;2260648;61;20364;-53
2023/12/02 00:07:10;0.00;0.00;0.62;0.00;0.00;0.62;3.10;1.97;;;18.20;22.90;;;;;;2260687;61;20384;-58
2023/12/02 00:09:55;0.00;0.00;0.62;0.00;0.00;0.62;2.50;1.90;;;18.20;22.90;;;;;;2260886;61;20404;-60
2023/12/02 00:12:41;0.00;0.00;0.62;0.00;0.00;0.62;2.17;1.50;;;18.20;22.90;;;;;;2260717;61;20392;-58
2023/12/02 00:15:25;0.00;0.00;0.62;0.00;0.00;0.62;2.27;1.77;;;18.20;22.90;;;;;;2261205;61;20395;-51
2023/12/02 00:18:10;0.00;0.00;0.62;0.00;0.00;0.62;2.10;1.50;;;18.20;22.80;;;;;;2260381;61;20365;-51
2023/12/02 00:20:54;0.00;0.00;0.62;0.00;0.00;0.62;2.47;1.57;;;18.20;22.90;;;;;;2260769;61;20840;-55
2023/12/02 00:23:39;0.00;0.00;0.62;0.00;0.00;0.62;2.33;1.63;;;18.20;22.90;;;;;;2260563;61;20692;-55
2023/12/02 00:26:23;0.00;0.00;0.62;0.00;0.00;0.62;2.20;1.60;;;18.20;22.90;;;;;;2260618;61;20406;-57
2023/12/02 00:29:16;0.00;0.00;0.62;0.00;0.00;0.62;2.33;1.70;;;18.20;22.90;;;;;;2260973;61;20377;-60
2023/12/02 00:32:00;0.00;0.00;0.62;0.00;0.00;0.62;2.17;1.80;;;18.20;22.90;;;;;;2260793;61;20373;-58
2023/12/02 00:34:45;0.00;0.00;0.62;0.00;0.00;0.62;2.07;1.57;;;18.20;22.90;;;;;;2260882;61;20423;-53
2023/12/02 00:37:29;0.00;0.00;0.62;0.00;0.00;0.62;2.13;1.70;;;18.20;22.90;;;;;;2260920;61;20364;-52
2023/12/02 00:40:14;0.00;0.00;0.62;0.00;0.00;0.62;2.07;1.63;;;18.20;22.90;;;;;;2260643;61;20360;-54
2023/12/02 00:42:59;0.00;0.00;0.62;0.00;0.00;0.62;2.10;1.60;;;18.20;22.90;;;;;;2260629;61;20447;-55
2023/12/02 00:45:45;0.00;0.00;0.62;0.00;0.00;0.62;2.53;2.00;;;18.20;22.90;;;;;;2260767;61;20520;-52
2023/12/02 00:48:30;0.00;0.00;0.62;0.00;0.00;0.62;2.37;1.63;;;18.20;22.90;;;;;;2260425;61;20452;-58
2023/12/02 00:51:14;0.00;0.00;0.62;0.00;0.00;0.62;2.77;1.70;;;18.20;22.90;;;;;;2260869;61;20408;-57
2023/12/02 00:54:33;0.00;0.00;0.62;0.00;0.00;0.62;2.30;1.50;;;18.20;22.90;;;;;;2294353;48;20412;-54
2023/12/02 00:57:18;0.00;0.00;0.62;0.00;0.00;0.62;2.20;1.50;;;18.20;22.90;;;;;;2262318;61;20442;-54
2023/12/02 01:00:04;0.00;0.00;0.62;0.00;0.00;0.62;2.47;2.00;;;18.20;22.90;;;;;;2260747;61;20361;-55
2023/12/02 01:02:51;0.00;0.00;0.62;0.00;0.00;0.62;2.10;1.70;;;18.20;22.90;;;;;;2261935;61;20924;-58
2023/12/02 01:05:36;0.00;0.00;0.62;0.00;0.00;0.62;2.80;1.97;;;18.20;22.90;;;;;;2264826;61;20920;-54
2023/12/02 01:08:20;0.00;0.00;0.62;0.00;0.00;0.62;2.20;1.50;;;18.20;22.90;;;;;;2264943;61;21035;-57
2023/12/02 01:11:06;0.00;0.00;0.62;0.00;0.00;0.62;2.40;1.60;;;18.20;22.90;;;;;;2264666;61;20557;-58
2023/12/02 01:13:50;0.00;0.00;0.62;0.00;0.00;0.62;2.80;1.70;;;18.20;22.90;;;;;;2264609;61;20434;-54
2023/12/02 01:16:35;0.00;0.00;0.62;0.00;0.00;0.62;2.10;1.70;;;18.10;22.80;;;;;;2264423;61;20383;-59
2023/12/02 01:19:21;0.00;0.00;0.62;0.00;0.00;0.62;1.93;1.40;;;18.20;22.90;;;;;;2264632;61;20367;-58
2023/12/02 01:22:06;0.00;0.00;0.62;0.00;0.00;0.62;2.80;1.73;;;18.20;22.90;;;;;;2264535;61;20391;-56
2023/12/02 01:24:50;0.00;0.00;0.62;0.00;0.00;0.62;2.10;1.53;;;18.20;23.40;;;;;;2264501;61;20379;-51
2023/12/02 01:27:35;0.00;0.00;0.62;0.00;0.00;0.62;2.27;1.80;;;18.20;22.90;;;;;;2264590;61;20481;-57
2023/12/02 01:30:19;0.00;0.00;0.62;0.00;0.00;0.62;2.40;1.67;;;18.20;22.90;;;;;;2264616;61;20410;-54
2023/12/02 01:33:04;0.00;0.00;0.62;0.00;0.00;0.62;2.93;1.83;;;18.20;22.90;;;;;;2264307;61;20403;-53
2023/12/02 01:35:51;0.00;0.00;0.62;0.00;0.00;0.62;2.17;1.60;;;18.20;22.90;;;;;;2263737;61;20369;-53
2023/12/02 01:38:36;0.00;0.00;0.62;0.00;0.00;0.62;2.47;2.00;;;18.20;22.90;;;;;;2264739;61;20368;-58
2023/12/02 01:41:20;0.00;0.00;0.62;0.00;0.00;0.62;2.20;1.70;;;18.10;22.80;;;;;;2264886;61;20364;-54
2023/12/02 01:44:05;0.00;0.00;0.62;0.00;0.00;0.62;2.70;2.00;;;18.20;22.90;;;;;;2264833;61;20383;-56
2023/12/02 01:46:50;0.00;0.00;0.62;0.00;0.00;0.62;2.23;1.53;;;18.10;22.80;;;;;;2264158;61;20411;-55
2023/12/02 01:49:36;0.00;0.00;0.62;0.00;0.00;0.62;2.30;1.50;;;18.20;22.90;;;;;;2264906;61;20460;-58
2023/12/02 01:52:22;0.00;0.00;0.62;0.00;0.00;0.62;2.47;2.10;;;18.10;22.80;;;;;;2264397;61;21004;-53
2023/12/02 01:55:08;0.00;0.00;0.62;0.00;0.00;0.62;1.80;1.50;;;18.20;22.90;;;;;;2263716;61;20875;-57
2023/12/02 01:57:53;0.00;0.00;0.62;0.00;0.00;0.62;2.10;1.57;;;18.20;22.90;;;;;;2264762;61;20388;-56
2023/12/02 02:00:37;0.00;0.00;0.62;0.00;0.00;0.62;2.87;2.10;;;18.10;22.80;;;;;;2264888;61;20887;-56
2023/12/02 02:03:22;0.00;0.00;0.62;0.00;0.00;0.62;2.47;1.80;;;18.10;22.80;;;;;;2264220;61;20426;-52
2023/12/02 02:06:09;0.00;0.00;0.62;0.00;0.00;0.62;2.47;1.90;;;18.10;22.80;;;;;;2260578;61;20423;-60
2023/12/02 02:08:55;0.00;0.00;0.62;0.00;0.00;0.62;2.47;1.80;;;18.10;22.80;;;;;;2260645;61;20494;-55
2023/12/02 02:11:40;0.00;0.00;0.62;0.00;0.00;0.62;2.47;1.77;;;18.10;22.80;;;;;;2264386;61;20372;-56
2023/12/02 02:14:25;0.00;0.00;0.62;0.00;0.00;0.62;2.77;2.07;;;18.10;22.80;;;;;;2264877;61;20840;-57
2023/12/02 02:17:09;0.00;0.00;0.62;0.00;0.00;0.62;3.10;2.20;;;18.10;22.80;;;;;;2264244;61;20368;-57
2023/12/02 02:19:54;0.00;0.00;0.62;0.00;0.00;0.62;3.20;2.40;;;18.10;22.80;;;;;;2261367;61;20800;-55
2023/12/02 02:22:39;0.00;0.00;0.62;0.00;0.00;0.62;2.67;1.57;;;18.20;22.80;;;;;;2264390;61;20787;-57
2023/12/02 02:25:24;0.00;0.00;0.62;0.00;0.00;0.62;2.90;2.13;;;18.10;23.30;;;;;;2264410;61;20393;-60
2023/12/02 02:28:09;0.00;0.00;0.62;0.00;0.00;0.62;3.30;2.33;;;18.10;22.80;;;;;;2264496;61;21023;-54
2023/12/02 02:30:54;0.00;0.00;0.62;0.00;0.00;0.62;3.40;2.10;;;18.20;22.80;;;;;;2264429;61;20364;-58
2023/12/02 02:33:38;0.00;0.00;0.62;0.00;0.00;0.62;3.10;2.00;;;18.10;23.30;;;;;;2264252;61;20392;-58
2023/12/02 02:36:23;0.00;0.00;0.62;0.00;0.00;0.62;3.17;2.23;;;18.10;22.80;;;;;;2264794;61;20501;-60
2023/12/02 02:39:10;0.00;0.00;0.62;0.00;0.00;0.62;2.73;2.00;;;18.10;22.80;;;;;;2263969;61;20368;-55
2023/12/02 02:41:55;0.00;0.00;0.62;0.00;0.00;0.62;2.70;2.07;;;18.10;22.80;;;;;;2264068;61;20388;-54
2023/12/02 02:44:40;0.00;0.00;0.62;0.00;0.00;0.62;2.93;2.37;;;18.10;22.80;;;;;;2264739;61;20399;-55
2023/12/02 02:47:24;0.00;0.00;0.62;0.00;0.00;0.62;2.87;2.17;;;18.10;22.80;;;;;;2264220;61;20391;-54
2023/12/02 02:50:09;0.00;0.00;0.62;0.00;0.00;0.62;2.90;2.03;;;18.10;22.80;;;;;;2264673;61;20390;-56
2023/12/02 02:52:53;0.00;0.00;0.62;0.00;0.00;0.62;3.30;2.20;;;18.10;22.80;;;;;;2263661;61;20418;-54
2023/12/02 02:55:39;0.00;0.00;0.62;0.00;0.00;0.62;3.00;1.97;;;18.10;22.80;;;;;;2264656;61;20487;-56
2023/12/02 02:58:28;0.00;0.00;0.62;0.00;0.00;0.62;2.43;1.60;;;18.10;22.80;;;;;;2264809;61;20411;-51
2023/12/02 03:01:13;0.00;0.00;0.62;0.00;0.00;0.62;2.50;2.10;;;18.10;22.80;;;;;;2264416;61;21006;-57
2023/12/02 03:03:57;0.00;0.00;0.62;0.00;0.00;0.62;3.13;1.93;;;18.10;22.80;;;;;;2264472;61;20388;-53
2023/12/02 03:06:42;0.00;0.00;0.62;0.00;0.00;0.62;2.93;2.03;;;18.10;22.80;;;;;;2264718;61;20391;-57
2023/12/02 03:09:26;0.00;0.00;0.62;0.00;0.00;0.62;3.63;2.10;;;18.10;22.80;;;;;;2264215;61;20368;-51
2023/12/02 03:12:12;0.00;0.00;0.62;0.00;0.00;0.62;3.27;2.30;;;18.10;22.80;;;;;;2264230;61;20380;-54
2023/12/02 03:14:56;0.00;0.00;0.62;0.00;0.00;0.62;2.87;2.20;;;18.10;22.80;;;;;;2264352;61;20416;-57
2023/12/02 03:17:41;0.00;0.00;0.62;0.00;0.00;0.62;2.27;1.57;;;18.10;22.80;;;;;;2264406;61;20977;-51
2023/12/02 03:20:26;0.00;0.00;0.62;0.00;0.00;0.62;2.90;2.13;;;18.10;22.80;;;;;;2264775;61;20368;-53
2023/12/02 03:23:10;0.00;0.00;0.62;0.00;0.00;0.62;1.97;1.60;;;18.10;22.80;;;;;;2263760;61;20484;-59
2023/12/02 03:25:55;0.00;0.00;0.62;0.00;0.00;0.62;3.00;2.37;;;18.10;22.80;;;;;;2264670;61;20426;-58
2023/12/02 03:28:41;0.00;0.00;0.62;0.00;0.00;0.62;2.90;2.13;;;18.10;22.80;;;;;;2264638;61;20512;-54
2023/12/02 03:31:25;0.00;0.00;0.62;0.00;0.00;0.62;2.63;1.77;;;18.10;22.80;;;;;;2264010;61;20444;-58
2023/12/02 03:34:10;0.00;0.00;0.62;0.00;0.00;0.62;2.53;2.20;;;18.10;22.80;;;;;;2264461;61;20422;-53
2023/12/02 03:36:55;0.00;0.00;0.62;0.00;0.00;0.62;2.73;2.17;;;18.10;22.80;;;;;;2264379;61;21011;-56
2023/12/02 03:39:39;0.00;0.00;0.62;0.00;0.00;0.62;2.67;2.00;;;18.10;22.80;;;;;;2264498;61;20367;-58
2023/12/02 03:42:24;0.00;0.00;0.62;0.00;0.00;0.62;2.57;1.90;;;18.10;22.80;;;;;;2264317;61;20903;-51
2023/12/02 03:45:10;0.00;0.00;0.62;0.00;0.00;0.62;2.80;2.30;;;18.10;22.80;;;;;;2264064;61;20351;-54
2023/12/02 03:47:55;0.00;0.00;0.62;0.00;0.00;0.62;2.40;1.80;;;18.10;22.80;;;;;;2264379;61;20391;-53
2023/12/02 03:50:39;0.00;0.00;0.62;0.00;0.00;0.62;2.73;1.90;;;18.10;22.80;;;;;;2264460;61;20422;-57
2023/12/02 03:53:25;0.00;0.00;0.62;0.00;0.00;0.62;2.60;1.90;;;18.10;22.80;;;;;;2263566;61;20380;-61
2023/12/02 03:56:11;0.00;0.00;0.62;0.00;0.00;0.62;2.70;1.93;;;18.00;22.70;;;;;;2265084;61;20363;-58
2023/12/02 03:58:55;0.00;0.00;0.62;0.00;0.00;0.62;2.53;1.90;;;18.10;22.80;;;;;;2265091;61;20938;-53
2023/12/02 04:01:41;0.00;0.00;0.62;0.00;0.00;0.62;3.37;2.33;;;18.10;22.80;;;;;;2264350;61;20434;-56
2023/12/02 04:04:26;0.00;0.00;0.62;0.00;0.00;0.62;2.63;1.83;;;18.10;22.80;;;;;;2264921;61;20453;-54
2023/12/02 04:07:10;0.00;0.00;0.62;0.00;0.00;0.62;2.70;2.00;;;18.10;22.80;;;;;;2263205;61;20392;-55
2023/12/02 04:09:55;0.00;0.00;0.62;0.00;0.00;0.62;3.03;2.33;;;18.10;22.80;;;;;;2260781;61;20773;-58
2023/12/02 04:12:40;0.00;0.00;0.62;0.00;0.00;0.62;2.67;1.80;;;18.10;22.80;;;;;;2260687;61;20442;-56
2023/12/02 04:15:25;0.00;0.00;0.62;0.00;0.00;0.62;3.10;2.10;;;18.00;22.70;;;;;;2260962;61;20368;-57
2023/12/02 04:18:11;0.00;0.00;0.62;0.00;0.00;0.62;3.17;2.40;;;18.00;22.70;;;;;;2260413;61;20410;-58
2023/12/02 04:20:56;0.00;0.00;0.62;0.00;0.00;0.62;2.57;2.03;;;18.00;22.70;;;;;;2260800;61;20732;-55
2023/12/02 04:23:40;0.00;0.00;0.62;0.00;0.00;0.62;2.90;2.33;;;18.00;22.70;;;;;;2260313;61;20412;-60
2023/12/02 04:26:25;0.00;0.00;0.62;0.00;0.00;0.62;2.17;1.83;;;18.00;22.70;;;;;;2261015;61;20392;-56
2023/12/02 04:29:09;0.00;0.00;0.62;0.00;0.00;0.62;3.00;2.20;;;18.00;22.70;;;;;;2260553;61;20977;-53
2023/12/02 04:31:54;0.00;0.00;0.62;0.00;0.00;0.62;2.47;2.10;;;18.00;22.70;;;;;;2260566;61;20361;-55
2023/12/02 04:34:40;0.00;0.00;0.62;0.00;0.00;0.62;2.13;1.73;;;18.00;22.70;;;;;;2260954;61;20902;-54
2023/12/02 04:37:24;0.00;0.00;0.62;0.00;0.00;0.62;3.23;2.33;;;18.00;22.70;;;;;;2260441;61;20361;-55
2023/12/02 04:40:11;0.00;0.00;0.62;0.00;0.00;0.62;3.20;2.10;;;18.00;22.70;;;;;;2260891;61;20408;-59
2023/12/02 04:42:55;0.00;0.00;0.62;0.00;0.00;0.62;2.87;2.27;;;18.00;22.70;;;;;;2260419;61;20638;-58
2023/12/02 04:45:40;0.00;0.00;0.62;0.00;0.00;0.62;2.90;2.20;;;18.00;22.70;;;;;;2260596;61;20411;-58
2023/12/02 04:48:24;0.00;0.00;0.62;0.00;0.00;0.62;2.37;1.90;;;18.00;22.70;;;;;;2260876;61;20362;-57
2023/12/02 04:51:10;0.00;0.00;0.62;0.00;0.00;0.62;2.13;1.73;;;18.00;22.70;;;;;;2260718;61;20432;-62
2023/12/02 04:53:55;0.00;0.00;0.62;0.00;0.00;0.62;2.43;1.63;;;18.00;22.70;;;;;;2260473;61;20856;-55
2023/12/02 04:56:40;0.00;0.00;0.62;0.00;0.00;0.62;2.80;1.93;;;18.00;22.70;;;;;;2261180;61;20763;-53
2023/12/02 04:59:24;0.00;0.00;0.62;0.00;0.00;0.62;2.83;2.23;;;18.00;22.70;;;;;;2260485;61;20820;-52
2023/12/02 05:02:09;0.00;0.00;0.62;0.00;0.00;0.62;3.20;2.20;;;18.00;22.70;;;;;;2260377;61;20419;-55
2023/12/02 05:04:54;0.00;0.00;0.62;0.00;0.00;0.62;2.57;1.73;;;18.00;22.70;;;;;;2260807;61;20365;-58
2023/12/02 05:07:39;0.00;0.00;0.62;0.00;0.00;0.62;2.60;1.77;;;18.00;22.70;;;;;;2260203;61;20983;-56
2023/12/02 05:10:25;0.00;0.00;0.62;0.00;0.00;0.62;2.67;1.80;;;18.00;22.70;;;;;;2260966;61;20422;-54
2023/12/02 05:13:10;0.00;0.00;0.62;0.00;0.00;0.62;2.80;2.13;;;18.00;22.80;;;;;;2260689;61;20419;-59
2023/12/02 05:15:54;0.00;0.00;0.62;0.00;0.00;0.62;2.80;2.03;;;18.00;22.70;;;;;;2261047;61;20451;-56
2023/12/02 05:18:40;0.00;0.00;0.62;0.00;0.00;0.62;3.63;2.47;;;18.00;22.70;;;;;;2260644;61;20368;-56
2023/12/02 05:21:25;0.00;0.00;0.62;0.00;0.00;0.62;2.50;2.07;;;18.00;22.80;;;;;;2260495;61;20415;-56
2023/12/02 05:24:11;0.00;0.00;0.62;0.00;0.00;0.62;3.00;2.47;;;18.00;22.80;;;;;;2260684;61;20385;-56
2023/12/02 05:26:57;0.00;0.00;0.62;0.00;0.00;0.62;2.90;2.30;;;18.00;22.80;;;;;;2260537;61;20806;-56
2023/12/02 05:29:42;0.00;0.00;0.62;0.00;0.00;0.62;2.80;2.10;;;18.00;22.80;;;;;;2260319;61;20435;-56
2023/12/02 05:32:26;0.00;0.00;0.62;0.00;0.00;0.62;2.90;2.03;;;18.00;22.80;;;;;;2260212;61;20385;-56
2023/12/02 05:35:11;0.00;0.00;0.62;0.00;0.00;0.62;2.93;2.10;;;18.00;22.80;;;;;;2260731;61;20908;-56
2023/12/02 05:37:55;0.00;0.00;0.62;0.00;0.00;0.62;2.30;1.83;;;17.90;22.70;;;;;;2260400;61;20496;-51
2023/12/02 05:40:41;0.00;0.00;0.62;0.00;0.00;0.62;2.53;2.03;;;18.00;22.80;;;;;;2257582;61;20420;-57
2023/12/02 05:43:26;0.00;0.00;0.62;0.00;0.00;0.62;2.70;2.33;;;18.00;22.80;;;;;;2260075;61;20388;-58
2023/12/02 05:46:15;0.00;0.00;0.62;0.00;0.00;0.62;2.40;2.20;;;18.00;22.80;;;;;;2260741;61;20423;-58
2023/12/02 05:48:59;0.00;0.00;0.62;0.00;0.00;0.62;3.50;2.40;;;18.00;22.80;;;;;;2260685;61;20443;-52
2023/12/02 05:51:44;0.00;0.00;0.62;0.00;0.00;0.62;2.47;1.93;;;17.90;22.70;;;;;;2260011;61;20820;-58
2023/12/02 05:54:29;0.00;0.00;0.62;0.00;0.00;0.62;2.50;2.10;;;18.00;22.80;;;;;;2260943;61;20901;-60
2023/12/02 05:57:14;0.00;0.00;0.62;0.00;0.00;0.62;3.77;2.80;;;18.00;22.80;;;;;;2260715;61;20365;-57
2023/12/02 05:59:59;0.00;0.00;0.62;0.00;0.00;0.62;3.37;2.10;;;17.90;22.70;;;;;;2260237;61;20889;-58
2023/12/02 06:02:44;0.00;0.00;0.62;0.00;0.00;0.62;3.20;2.70;;;17.90;22.70;;;;;;2260296;61;20420;-55
2023/12/02 06:05:28;0.00;0.00;0.62;0.00;0.00;0.62;3.17;2.33;;;17.90;22.70;;;;;;2260226;61;20369;-53
2023/12/02 06:08:14;0.00;0.00;0.62;0.00;0.00;0.62;3.53;2.40;;;17.90;22.70;;;;;;2260497;61;20408;-53
2023/12/02 06:11:00;0.00;0.00;0.62;0.00;0.00;0.62;2.80;2.30;;;17.90;22.70;;;;;;2260439;61;20361;-58
2023/12/02 06:13:47;0.00;0.00;0.62;0.00;0.00;0.62;2.83;2.43;;;17.90;22.70;;;;;;2259957;61;20795;-58
2023/12/02 06:16:31;0.00;0.00;0.62;0.00;0.00;0.62;2.57;2.17;;;17.90;22.70;;;;;;2260753;61;20417;-56
2023/12/02 06:19:19;0.00;0.00;0.62;0.00;0.00;0.62;2.50;2.30;;;17.90;22.70;;;;;;2260357;61;20408;-55
2023/12/02 06:22:04;0.00;0.00;0.62;0.00;0.00;0.62;2.73;2.07;;;17.90;22.70;;;;;;2259982;61;20432;-53
2023/12/02 06:24:48;0.00;0.00;0.62;0.00;0.00;0.62;3.87;2.37;;;17.90;22.70;;;;;;2260526;61;20451;-56
2023/12/02 06:27:33;0.00;0.00;0.62;0.00;0.00;0.62;2.67;2.00;;;17.90;22.70;;;;;;2260008;61;20443;-58
2023/12/02 06:30:20;0.00;0.00;0.62;0.00;0.00;0.62;2.93;2.30;;;17.90;22.70;;;;;;2260534;61;20361;-58
2023/12/02 06:33:04;0.00;0.00;0.62;0.00;0.00;0.62;2.90;2.30;;;17.90;22.70;;;;;;2257007;61;20443;-55
2023/12/02 06:35:49;0.00;0.00;0.62;0.00;0.00;0.62;2.63;2.17;;;17.90;22.70;;;;;;2259985;61;20403;-58
2023/12/02 06:38:34;0.00;0.00;0.62;0.00;0.00;0.62;2.60;2.17;;;17.90;22.70;;;;;;2260406;61;20356;-55
2023/12/02 06:41:19;0.00;0.00;0.62;0.00;0.00;0.62;3.17;2.30;;;17.90;22.70;;;;;;2260730;61;20360;-56
2023/12/02 06:44:03;0.00;0.00;0.62;0.00;0.00;0.62;3.23;2.10;;;17.90;22.70;;;;;;2259970;61;20524;-58
2023/12/02 06:46:50;0.00;0.00;0.62;0.00;0.00;0.62;2.77;2.07;;;17.90;22.70;;;;;;2260607;61;20389;-59
2023/12/02 06:49:34;0.00;0.00;0.62;0.00;0.00;0.62;2.77;1.97;;;17.90;22.70;;;;;;2260429;61;20385;-54
2023/12/02 06:52:19;0.00;0.00;0.62;0.00;0.00;0.62;2.60;2.10;;;17.90;22.70;;;;;;2260124;61;20384;-58
2023/12/02 06:55:04;0.00;0.00;0.62;0.00;0.00;0.62;3.07;2.37;;;17.90;22.70;;;;;;2260529;61;20365;-56
2023/12/02 06:57:49;0.00;0.00;0.62;0.00;0.00;0.62;3.00;2.50;;;17.90;22.70;;;;;;2260023;61;20431;-56
2023/12/02 07:00:35;0.00;0.00;0.62;0.00;0.00;0.62;2.57;2.00;;;17.90;23.20;;;;;;2260561;61;20775;-55
2023/12/02 07:03:21;0.00;0.00;0.62;0.00;0.00;0.62;3.00;2.37;;;17.90;22.70;;;;;;2259914;61;20420;-58
2023/12/02 07:06:06;0.00;0.00;0.62;0.00;0.00;0.62;2.23;1.97;;;17.90;22.70;;;;;;2260127;61;20373;-57
2023/12/02 07:08:52;0.00;0.00;0.62;0.00;0.00;0.62;3.53;2.53;;;17.90;22.70;;;;;;2260452;61;20365;-57
2023/12/02 07:11:37;0.00;0.00;0.62;0.00;0.00;0.62;3.30;2.27;;;17.90;22.70;;;;;;2260031;61;20365;-55
2023/12/02 07:14:22;0.00;0.00;0.62;0.00;0.00;0.62;3.57;2.67;;;17.90;22.70;;;;;;2260447;61;20419;-54
2023/12/02 07:17:06;0.00;0.00;0.62;0.00;0.00;0.62;3.57;2.60;;;17.90;22.70;;;;;;2260353;61;20380;-57
2023/12/02 07:19:52;0.00;0.00;0.62;0.00;0.00;0.62;2.60;2.03;;;17.90;22.70;;;;;;2259984;61;20369;-56
2023/12/02 07:22:37;0.00;0.00;0.62;0.00;0.00;0.62;2.20;1.93;;;17.90;22.70;;;;;;2260138;61;20473;-58
2023/12/02 07:25:21;0.00;0.00;0.62;0.00;0.00;0.62;2.70;2.20;;;17.90;23.20;;;;;;2260358;61;20449;-55
2023/12/02 07:28:06;0.00;0.00;0.62;0.00;0.00;0.62;3.50;2.23;;;17.90;22.70;;;;;;2262990;61;21003;-53
2023/12/02 07:30:51;0.00;0.00;0.62;0.00;0.00;0.62;3.30;2.30;;;17.90;22.70;;;;;;2265143;61;20426;-56
2023/12/02 07:33:36;0.00;0.00;0.62;0.00;0.00;0.62;2.90;2.20;;;17.80;22.70;;;;;;2264836;61;20383;-60
2023/12/02 07:36:22;0.00;0.00;0.62;0.00;0.00;0.62;3.37;2.30;;;17.90;22.70;;;;;;2264994;61;20410;-57
2023/12/02 07:39:06;0.00;0.00;0.62;0.00;0.00;0.62;2.57;2.03;;;17.90;22.70;;;;;;2265042;61;20375;-56
2023/12/02 07:41:51;0.00;0.00;0.62;0.00;0.00;0.62;2.50;2.00;;;17.90;22.70;;;;;;2264391;61;21011;-57
2023/12/02 07:44:35;0.00;0.00;0.62;0.00;0.00;0.62;2.80;2.23;;;17.80;22.70;;;;;;2265026;61;20367;-58
2023/12/02 07:47:20;0.00;0.00;0.62;0.00;0.00;0.62;2.83;2.07;;;17.90;22.70;;;;;;2265265;61;20379;-54
2023/12/02 07:50:07;0.00;0.00;0.62;0.00;0.00;0.62;3.00;2.50;;;17.90;22.70;;;;;;2264832;61;20363;-57
2023/12/02 07:52:53;0.00;0.00;0.62;0.00;0.00;0.62;2.80;2.30;;;17.90;22.70;;;;;;2264767;61;20414;-54
2023/12/02 07:55:38;0.00;0.00;0.62;0.00;0.00;0.62;2.83;2.30;;;17.80;22.70;;;;;;2264443;61;20411;-53
2023/12/02 07:58:22;0.00;0.00;0.62;0.00;0.00;0.62;2.80;2.30;;;17.90;22.70;;;;;;2264883;61;20367;-54
2023/12/02 08:01:07;0.00;0.00;0.62;0.00;0.00;0.62;3.07;2.40;;;17.80;22.70;;;;;;2265197;61;20447;-55
2023/12/02 08:03:51;0.00;0.00;0.62;0.00;0.00;0.62;2.63;2.03;;;17.90;22.70;;;;;;2264392;61;20687;-55
2023/12/02 08:06:36;0.00;0.00;0.62;0.00;0.00;0.62;2.90;2.10;;;17.80;22.70;;;;;;2261739;61;20430;-55
2023/12/02 08:09:23;0.00;0.00;0.62;0.00;0.00;0.62;2.53;2.17;;;17.80;22.70;;;;;;2265112;61;20388;-59
2023/12/02 08:12:08;0.00;0.00;0.62;0.00;0.00;0.62;2.70;2.17;;;17.90;22.80;;;;;;2264177;61;20387;-56
2023/12/02 08:14:52;0.00;0.00;0.62;0.00;0.00;0.62;2.40;1.90;;;17.80;22.70;;;;;;2265354;61;20391;-58
2023/12/02 08:17:37;0.00;0.00;0.62;0.00;0.00;0.62;2.53;2.00;;;17.80;22.70;;;;;;2265209;61;20359;-54
2023/12/02 08:20:21;0.00;0.00;0.62;0.00;0.00;0.62;2.80;2.23;;;17.80;22.70;;;;;;2264810;61;20364;-56
2023/12/02 08:23:06;0.00;0.00;0.62;0.00;0.00;0.62;3.27;2.27;;;17.80;22.70;;;;;;2264633;61;20466;-58
2023/12/02 08:25:52;0.00;0.00;0.62;0.00;0.00;0.62;3.50;2.40;;;17.80;22.70;;;;;;2264603;61;20383;-54
2023/12/02 08:28:37;0.00;0.00;0.62;0.00;0.00;0.62;2.90;1.90;;;17.80;22.70;;;;;;2265012;61;20391;-57
2023/12/02 08:31:22;0.00;0.00;0.62;0.00;0.00;0.62;3.20;2.23;;;17.80;22.70;;;;;;2261848;61;21004;-58
2023/12/02 08:34:06;0.00;0.00;0.62;0.00;0.00;0.62;3.53;2.47;;;17.80;22.70;;;;;;2264768;61;20383;-59
2023/12/02 08:36:51;0.00;0.00;0.62;0.00;0.00;0.62;3.00;2.40;;;17.80;22.70;;;;;;2264979;61;20352;-55
2023/12/02 08:39:37;0.00;0.00;0.62;0.00;0.00;0.62;4.37;2.20;;;17.80;22.70;;;;;;2264878;61;20422;-58
2023/12/02 08:42:23;0.00;0.00;0.62;0.00;0.00;0.62;3.63;1.90;;;17.80;22.70;;;;;;2260840;61;20404;-57
2023/12/02 08:45:09;0.00;0.00;0.62;0.00;0.00;0.62;2.70;2.27;;;17.80;22.70;;;;;;2264851;61;20372;-53
2023/12/02 08:47:53;0.00;0.00;0.62;0.00;0.00;0.62;2.93;2.30;;;17.80;22.70;;;;;;2264848;61;20426;-56
2023/12/02 08:50:38;0.00;0.00;0.62;0.00;0.00;0.62;3.30;2.30;;;17.80;23.20;;;;;;2264912;61;20892;-56
2023/12/02 08:53:22;0.00;0.00;0.62;0.00;0.00;0.62;3.30;2.37;;;17.80;22.70;;;;;;2264416;61;20380;-54
2023/12/02 08:56:08;0.00;0.00;0.62;0.00;0.00;0.62;2.67;2.00;;;17.80;22.70;;;;;;2264708;61;20426;-56
2023/12/02 08:58:54;0.00;0.00;0.62;0.00;0.00;0.62;2.67;2.03;;;17.80;22.70;;;;;;2264980;61;20442;-54
2023/12/02 09:01:39;0.00;0.00;0.62;0.00;0.00;0.62;3.00;2.00;;;17.80;22.70;;;;;;2261122;61;20421;-56
2023/12/02 09:04:24;0.00;0.00;0.62;0.00;0.00;0.62;2.70;2.10;;;17.80;22.70;;;;;;2264716;61;20367;-60
2023/12/02 09:07:08;0.00;0.00;0.62;0.00;0.00;0.62;2.63;2.10;;;17.80;22.70;;;;;;2264959;61;20383;-56
2023/12/02 09:09:53;0.00;0.00;0.62;0.00;0.00;0.62;2.83;1.80;;;17.80;22.80;;;;;;2264934;61;20367;-55
2023/12/02 09:12:38;0.00;0.00;0.62;0.00;0.00;0.62;3.23;2.40;;;17.80;23.20;;;;;;2264456;61;20392;-56
2023/12/02 09:15:40;0.00;0.00;0.62;0.00;0.00;0.62;3.40;2.87;;;17.80;22.70;;;;;;2264978;61;20364;-58
2023/12/02 09:18:32;0.00;0.00;0.62;0.00;0.00;0.62;4.63;2.07;;;17.80;23.20;;;;;;2261030;61;20360;-55
2023/12/02 09:21:43;0.00;0.00;0.62;0.00;0.00;0.62;3.13;2.50;;;17.80;22.70;;;;;;2264961;61;20771;-54
2023/12/02 09:24:35;0.00;0.00;0.62;0.00;0.00;0.62;3.70;2.77;;;17.80;22.70;;;;;;2264964;61;20388;-59
2023/12/02 09:28:11;0.00;0.00;0.62;0.00;0.00;0.62;3.00;2.57;;;17.90;22.80;;;;;;2264617;61;20390;-56
2023/12/02 09:31:00;0.00;0.00;0.62;0.00;0.00;0.62;3.97;2.70;;;17.80;22.70;;;;;;2264803;61;20419;-57
2023/12/02 09:33:48;0.00;0.00;0.62;0.00;0.00;0.62;3.60;2.77;;;17.80;22.80;;;;;;2264152;61;20388;-58
2023/12/02 09:36:35;0.00;0.00;0.62;0.00;0.00;0.62;3.17;2.63;;;17.80;23.30;;;;;;2264808;61;20403;-56
2023/12/02 09:40:06;0.00;0.00;0.62;0.00;0.00;0.62;3.33;2.50;;;17.80;22.80;;;;;;2264691;61;20372;-56
2023/12/02 09:42:54;0.00;0.00;0.62;0.00;0.00;0.62;3.27;2.40;;;17.80;22.80;;;;;;2264390;61;20468;-52
2023/12/02 09:45:48;0.00;0.00;0.62;0.00;0.00;0.62;3.40;2.50;;;17.80;22.80;;;;;;2264843;61;20372;-59
2023/12/02 09:48:43;0.00;0.00;0.62;0.00;0.00;0.62;3.70;2.60;;;17.80;22.80;;;;;;2264335;61;20942;-59
2023/12/02 09:51:50;0.00;0.00;0.62;0.00;0.00;0.62;3.37;2.90;;;17.80;22.80;;;;;;2264750;61;20437;-62
2023/12/02 09:54:45;0.00;0.00;0.62;0.00;0.00;0.62;2.93;2.23;;;17.80;22.80;;;;;;2264431;61;20835;-60
2023/12/02 09:57:37;0.00;0.00;0.62;0.00;0.00;0.62;3.17;2.20;;;17.80;22.80;;;;;;2264671;61;20356;-56
2023/12/02 10:00:38;0.00;0.00;0.62;0.00;0.00;0.62;3.50;2.70;;;17.80;22.80;;;;;;2264681;61;20391;-58
2023/12/02 10:03:58;0.00;0.00;0.62;0.00;0.00;0.62;3.23;2.33;;;17.80;22.80;;;;;;2264165;61;20861;-56
2023/12/02 10:06:50;0.00;0.00;0.62;0.00;0.00;0.62;4.90;2.80;;;17.80;22.80;;;;;;2264885;61;20439;-54
2023/12/02 10:09:55;0.00;0.00;0.62;0.00;0.00;0.62;3.23;2.33;;;17.80;22.80;;;;;;2264393;61;21093;-58
2023/12/02 10:12:50;0.00;0.00;0.62;0.00;0.00;0.62;3.67;2.90;;;17.80;22.80;;;;;;2264257;61;20380;-57
2023/12/02 10:15:39;0.00;0.00;0.62;0.00;0.00;0.62;3.83;2.63;;;17.80;22.80;;;;;;2264843;61;20453;-55
2023/12/02 10:18:29;0.00;0.00;0.62;0.00;0.00;0.62;3.27;2.83;;;17.80;22.80;;;;;;2264335;61;20360;-57
2023/12/02 10:21:19;0.00;0.00;0.62;0.00;0.00;0.62;3.27;2.53;;;17.80;22.80;;;;;;2264775;61;20399;-55
2023/12/02 10:24:10;0.00;0.00;0.62;0.00;0.00;0.62;4.00;3.00;;;17.80;22.80;;;;;;2264686;61;20388;-60
2023/12/02 10:27:03;0.00;0.00;0.62;0.00;0.00;0.62;4.23;3.23;;;17.80;22.80;;;;;;2264537;61;20380;-57
2023/12/02 10:30:02;0.00;0.00;0.62;0.00;0.00;0.62;3.67;2.80;;;17.80;22.80;;;;;;2264589;61;20478;-56
2023/12/02 10:33:06;0.00;0.00;0.62;0.00;0.00;0.62;4.10;3.17;;;17.80;22.80;;;;;;2263917;61;20510;-57
2023/12/02 10:36:02;0.00;0.00;0.62;0.00;0.00;0.62;4.27;3.60;;;17.80;22.80;;;;;;2264904;61;20875;-55
2023/12/02 10:39:01;0.00;0.00;0.62;0.00;0.00;0.62;5.57;4.27;;;17.80;22.80;;;;;;2264588;61;20399;-57
2023/12/02 10:41:52;0.00;0.00;0.62;0.00;0.00;0.62;6.00;3.77;;;17.80;22.80;;;;;;2264254;61;20880;-54
2023/12/02 10:44:40;0.00;0.00;0.62;0.00;0.00;0.62;5.03;3.80;;;17.80;22.80;;;;;;2264906;61;20807;-62
2023/12/02 10:47:25;0.00;0.00;0.62;0.00;0.00;0.62;5.90;3.97;;;17.80;22.80;;;;;;2264196;61;20913;-53
2023/12/02 10:50:12;0.00;0.00;0.62;0.00;0.00;0.62;5.73;4.67;;;17.80;22.80;;;;;;2264609;61;20395;-57
2023/12/02 10:53:03;0.00;0.00;0.62;0.00;0.00;0.62;5.57;4.13;;;17.80;22.80;;;;;;2264095;61;20387;-56
2023/12/02 10:55:55;0.00;0.00;0.62;0.00;0.00;0.62;5.80;4.70;;;17.80;22.80;;;;;;2264344;61;20906;-56
2023/12/02 10:58:43;0.00;0.00;0.62;0.00;0.00;0.62;5.53;4.17;;;17.80;22.80;;;;;;2264603;61;20900;-54